Hauptseite
METAR-TAF:

METAR-TAF

Flughäfen :

Pond Inlet, Nunavut, Kanada

Breite: 72-42N, Länge: 077-58W, Höhe: 59 m

Beobachtung

Neuester Wetterbericht von vor 30 Minuten, um 17:00 UTC
Wind 13 kt aus West/Südwest
Temperatur 5°C
Luftfeuchtigkeit 75%
Luftdruck 1005 hPa
Sichtweite: 14.5 km
Himmel klar

METAR: CYIO 231700Z AUTO 24013KT 9SM CLR 05/01 A2967 RMK SLP054

Zeit: 13:30 (17:30 UTC)

Prognose

Neuester Wetterbericht von vor 4 Stunden und 52 Minuten, um 12:38 UTC
Gültige Prognose vom 23 um 13 UTC bis 24 um 01 UTC
Wind 5 kt aus Südwest
Sichtweite: 10 km
Leicht bewölkt in der Höhe von 2000 ft
Aufgelockert bewölkt in der Höhe von 5000 ft
Zeitweise
vom 23 um 13 UTC bis 24 um 01 UTC
Aufgelockert bewölkt in der Höhe von 2000 ft
Durchbrochene Bewölkung in der Höhe von 5000 ft

TAF: CYIO 231238Z 2313/2401 23005KT P6SM FEW020 SCT050 TEMPO 2313/2401 SCT020 BKN050 RMK FCST BASED ON AUTO OBS. NXT FCST BY 231900Z

Wetterbeobachtungen und Prognosen von mehr als 4000 Flughäfen (METAR und TAF Bericht).

Die verfügbaren Stationen werden durch gelbe und rote Markierungen auf der Karte dargestellt.

Führen Sie die Maus auf sie, um den Namen der Station zu sehen.

Darauf klicken, um die Beobachtung von Wetterbeobachtungen und Prognosen zu sehen.

Um die Karte zu ändern : klicken Sie auf den grünen Tasten mit einem schwarzen Kreuz Zum Vergrößern, auf den grünen Button mit einem Gedankenstrich zu verkleinern, oder auf die grünen Pfeile für benachbarte Karten.


METAR-TAF: